createdAt,value
2022-11-18T00:01:59.000Z,8.48
2022-11-18T00:07:01.205Z,8.47
2022-11-18T00:12:21.535Z,8.47
2022-11-18T00:17:23.350Z,8.47
2022-11-18T00:22:29.695Z,8.41
2022-11-18T00:27:31.783Z,8.40
2022-11-18T00:32:33.358Z,8.42
2022-11-18T00:37:34.960Z,8.38
2022-11-18T00:42:51.814Z,8.34
2022-11-18T00:47:53.367Z,8.44
2022-11-18T00:52:54.919Z,8.45
2022-11-18T00:57:56.489Z,8.32
2022-11-18T01:02:58.058Z,8.16
2022-11-18T01:07:59.864Z,8.05
2022-11-18T01:13:19.700Z,8.09
2022-11-18T01:18:25.604Z,8.09
2022-11-18T01:23:27.377Z,8.05
2022-11-18T01:28:29.083Z,7.99
2022-11-18T01:33:30.824Z,7.94
2022-11-18T01:38:32.400Z,8.02
2022-11-18T01:43:56.602Z,7.97
2022-11-18T01:49:12.368Z,7.95
2022-11-18T01:54:20.196Z,7.98
2022-11-18T01:59:26.290Z,7.98
2022-11-18T02:04:28.002Z,7.96
2022-11-18T02:09:29.949Z,8.03
2022-11-18T02:14:35.283Z,8.01
2022-11-18T02:20:01.365Z,8.03
2022-11-18T02:25:30.239Z,8.08
2022-11-18T02:30:59.239Z,8.06
2022-11-18T02:36:18.955Z,8.08
2022-11-18T02:41:27.845Z,8.08
2022-11-18T02:46:35.994Z,8.05
2022-11-18T02:51:39.609Z,8.05
2022-11-18T02:56:42.528Z,8.02
2022-11-18T03:01:44.172Z,8.04
2022-11-18T03:07:03.294Z,8.00
2022-11-18T03:12:31.428Z,7.98
2022-11-18T03:17:44.887Z,7.89
2022-11-18T03:23:04.722Z,7.88
2022-11-18T03:28:14.492Z,7.92
2022-11-18T03:33:22.423Z,7.87
2022-11-18T03:38:30.133Z,7.84
2022-11-18T03:43:38.576Z,7.81
2022-11-18T03:48:51.926Z,7.80
2022-11-18T03:54:00.923Z,7.79
2022-11-18T03:59:26.831Z,7.70
2022-11-18T04:04:29.185Z,7.66
2022-11-18T04:09:36.497Z,7.61
2022-11-18T04:14:40.803Z,7.57
2022-11-18T04:19:42.867Z,7.55
2022-11-18T04:24:44.476Z,7.50
2022-11-18T04:29:46.220Z,7.50
2022-11-18T04:34:47.817Z,7.48
2022-11-18T04:39:49.609Z,7.42
2022-11-18T04:44:51.270Z,7.12
2022-11-18T04:49:52.901Z,6.92
2022-11-18T04:54:54.535Z,6.85
2022-11-18T04:59:56.102Z,6.77
2022-11-18T05:04:57.825Z,6.73
2022-11-18T05:09:59.469Z,6.76
2022-11-18T05:15:01.610Z,6.78
2022-11-18T05:20:03.358Z,6.77
2022-11-18T05:25:05.714Z,6.67
2022-11-18T05:30:07.892Z,6.57
2022-11-18T05:35:09.555Z,6.53
2022-11-18T05:40:11.375Z,6.52
2022-11-18T05:45:12.958Z,6.52
2022-11-18T05:50:18.559Z,6.52
2022-11-18T05:55:27.527Z,6.54
2022-11-18T06:00:30.183Z,6.53
2022-11-18T06:05:31.814Z,6.56
2022-11-18T06:10:37.610Z,6.58
2022-11-18T06:15:42.295Z,6.58
2022-11-18T06:20:44.236Z,6.54
2022-11-18T06:25:46.235Z,6.51
2022-11-18T06:30:47.899Z,6.52
2022-11-18T06:35:51.835Z,6.50
2022-11-18T06:40:53.388Z,6.49
2022-11-18T06:46:17.799Z,6.47
2022-11-18T06:51:19.736Z,6.52
2022-11-18T06:56:22.783Z,6.58
2022-11-18T07:01:28.430Z,6.58
2022-11-18T07:06:34.700Z,6.58
2022-11-18T07:11:38.263Z,6.63
2022-11-18T07:16:40.102Z,6.70
2022-11-18T07:21:42.644Z,6.71
2022-11-18T07:26:44.645Z,6.78
2022-11-18T07:31:46.274Z,6.79
2022-11-18T07:36:47.939Z,6.82
2022-11-18T07:41:49.907Z,6.85
2022-11-18T07:46:51.490Z,6.88
2022-11-18T07:51:53.753Z,6.92
2022-11-18T07:56:55.314Z,7.01
2022-11-18T08:01:57.654Z,7.04
2022-11-18T08:06:59.323Z,7.11
2022-11-18T08:12:00.935Z,7.18
2022-11-18T08:17:02.502Z,7.29
2022-11-18T08:22:04.089Z,7.34
2022-11-18T08:27:05.640Z,7.35
2022-11-18T08:32:07.239Z,7.45
2022-11-18T08:37:20.156Z,7.54
2022-11-18T08:42:31.321Z,7.60
2022-11-18T08:47:36.512Z,7.58
2022-11-18T08:52:38.251Z,7.60
2022-11-18T08:57:40.134Z,7.69
2022-11-18T09:02:41.719Z,7.77
2022-11-18T09:07:44.202Z,7.84
2022-11-18T09:12:45.766Z,7.97
2022-11-18T09:17:49.473Z,8.01
2022-11-18T09:22:51.140Z,8.08
2022-11-18T09:27:52.787Z,8.08
2022-11-18T09:32:54.349Z,8.13
2022-11-18T09:37:55.901Z,8.24
2022-11-18T09:43:30.792Z,8.28
2022-11-18T09:48:55.689Z,8.17
2022-11-18T09:53:57.296Z,8.23
2022-11-18T09:58:59.128Z,8.18
2022-11-18T10:04:00.726Z,8.23
2022-11-18T10:09:25.601Z,8.44
2022-11-18T10:14:40.359Z,8.70
2022-11-18T10:19:52.288Z,9.01
2022-11-18T10:24:56.563Z,9.14
2022-11-18T10:29:58.347Z,9.13
2022-11-18T10:34:59.961Z,9.10
2022-11-18T10:40:04.323Z,9.13
2022-11-18T10:45:21.444Z,9.07
2022-11-18T10:50:33.343Z,9.04
2022-11-18T10:55:34.972Z,9.16
2022-11-18T11:00:46.011Z,9.11
2022-11-18T11:05:47.656Z,9.18
2022-11-18T11:10:57.116Z,9.10
2022-11-18T11:16:03.728Z,8.87
2022-11-18T11:21:16.473Z,8.71
2022-11-18T11:32:03.331Z,8.73
2022-11-18T11:37:28.837Z,8.89
2022-11-18T11:43:01.535Z,9.05
2022-11-18T11:48:12.006Z,8.98
2022-11-18T11:53:25.454Z,8.80
2022-11-18T11:58:32.963Z,8.67
2022-11-18T12:03:52.352Z,8.71
2022-11-18T12:09:18.304Z,8.89
2022-11-18T12:14:46.093Z,8.96
2022-11-18T12:19:47.953Z,8.85
2022-11-18T12:24:49.515Z,8.92
2022-11-18T12:29:51.024Z,9.01
2022-11-18T12:35:13.455Z,8.99
2022-11-18T12:40:52.785Z,8.96
2022-11-18T12:45:56.175Z,9.00
2022-11-18T12:51:03.518Z,9.05
2022-11-18T12:56:17.358Z,9.22
2022-11-18T13:01:22.134Z,9.16
2022-11-18T13:06:31.300Z,9.20
2022-11-18T13:11:46.843Z,9.18
2022-11-18T13:17:07.609Z,9.16
2022-11-18T13:22:36.561Z,9.39
2022-11-18T13:28:11.686Z,9.52
2022-11-18T13:33:13.340Z,9.50
2022-11-18T13:38:28.526Z,9.56
2022-11-18T13:43:34.817Z,9.63
2022-11-18T13:48:39.643Z,9.67
2022-11-18T13:53:42.995Z,9.78
2022-11-18T13:59:16.352Z,9.93
2022-11-18T14:04:22.043Z,10.22
2022-11-18T14:09:30.657Z,10.42
2022-11-18T14:14:37.353Z,10.40
2022-11-18T14:19:40.377Z,10.18
2022-11-18T14:24:42.913Z,10.02
2022-11-18T14:29:50.644Z,10.04
2022-11-18T14:35:02.064Z,9.96
2022-11-18T14:40:03.708Z,9.84
2022-11-18T14:45:05.767Z,9.76
2022-11-18T14:50:14.651Z,9.64
2022-11-18T14:55:16.208Z,9.40
2022-11-18T15:00:18.187Z,9.29
2022-11-18T15:05:19.758Z,9.31
2022-11-18T15:10:21.309Z,9.33
2022-11-18T15:15:23.676Z,9.30
2022-11-18T15:20:25.288Z,9.27
2022-11-18T15:25:26.824Z,9.25
2022-11-18T15:30:28.416Z,9.21
2022-11-18T15:35:29.953Z,9.22
2022-11-18T15:40:31.575Z,9.15
2022-11-18T15:45:33.128Z,9.05
2022-11-18T15:50:34.865Z,9.00
2022-11-18T15:55:36.399Z,8.93
2022-11-18T16:00:37.943Z,8.96
2022-11-18T16:05:39.486Z,8.88
2022-11-18T16:10:59.715Z,8.84
2022-11-18T16:16:01.252Z,8.79
2022-11-18T16:21:02.792Z,8.74
2022-11-18T16:26:04.456Z,8.67
2022-11-18T16:31:27.507Z,8.59
2022-11-18T16:36:29.107Z,8.56
2022-11-18T16:41:33.331Z,8.50
2022-11-18T16:46:37.306Z,8.48
2022-11-18T16:51:42.628Z,8.45
2022-11-18T16:56:44.867Z,8.41
2022-11-18T17:01:46.495Z,8.41
2022-11-18T17:06:50.542Z,8.36
2022-11-18T17:11:54.210Z,8.31
2022-11-18T17:16:56.396Z,8.27
2022-11-18T17:21:58.215Z,8.23
2022-11-18T17:26:59.831Z,8.20
2022-11-18T17:32:01.797Z,8.17
2022-11-18T17:37:07.101Z,8.16
2022-11-18T17:42:14.932Z,8.14
2022-11-18T17:47:16.579Z,8.14
2022-11-18T17:52:19.269Z,8.14
2022-11-18T17:57:23.228Z,8.13
2022-11-18T18:02:24.792Z,8.12
2022-11-18T18:07:26.400Z,8.10
2022-11-18T18:12:46.588Z,8.09
2022-11-18T18:17:48.392Z,8.10
2022-11-18T18:22:49.936Z,8.08
2022-11-18T18:27:51.543Z,8.08
2022-11-18T18:32:53.086Z,8.06
2022-11-18T18:37:54.640Z,8.05
2022-11-18T18:42:56.167Z,8.03
2022-11-18T18:48:02.363Z,8.02
2022-11-18T18:53:04.264Z,8.01
2022-11-18T18:58:05.793Z,7.99
2022-11-18T19:03:07.323Z,7.96
2022-11-18T19:08:08.882Z,7.98
2022-11-18T19:13:10.444Z,8.01
2022-11-18T19:18:12.133Z,7.98
2022-11-18T19:23:13.793Z,7.87
2022-11-18T19:28:15.362Z,7.76
2022-11-18T19:33:17.362Z,7.74
2022-11-18T19:38:19.407Z,7.72
2022-11-18T19:43:20.994Z,7.59
2022-11-18T19:48:23.050Z,7.45
2022-11-18T19:53:33.411Z,7.37
2022-11-18T19:58:36.688Z,7.33
2022-11-18T20:03:38.292Z,7.35
2022-11-18T20:08:40.699Z,7.39
2022-11-18T20:13:43.744Z,7.33
2022-11-18T20:18:47.783Z,7.24
2022-11-18T20:23:55.930Z,7.12
2022-11-18T20:29:00.015Z,7.06
2022-11-18T20:34:02.588Z,7.03
2022-11-18T20:39:06.869Z,7.04
2022-11-18T20:44:08.523Z,7.04
2022-11-18T20:49:10.180Z,7.08
2022-11-18T20:54:11.765Z,7.04
2022-11-18T20:59:13.656Z,7.00
2022-11-18T21:04:15.208Z,7.02
2022-11-18T21:09:17.479Z,7.00
2022-11-18T21:14:24.435Z,6.91
2022-11-18T21:19:27.720Z,6.93
2022-11-18T21:24:30.528Z,6.94
2022-11-18T21:29:32.532Z,6.92
2022-11-18T21:34:34.110Z,6.98
2022-11-18T21:39:35.652Z,6.98
2022-11-18T21:44:37.191Z,6.96
2022-11-18T21:49:38.715Z,6.91
2022-11-18T21:54:40.637Z,6.95
2022-11-18T21:59:42.176Z,6.94
2022-11-18T22:04:52.722Z,6.96
2022-11-18T22:09:55.294Z,6.92
2022-11-18T22:14:56.846Z,6.87
2022-11-18T22:19:58.381Z,6.83
2022-11-18T22:25:00.355Z,6.84
2022-11-18T22:30:02.284Z,6.83
2022-11-18T22:35:04.160Z,6.82
2022-11-18T22:40:06.340Z,6.78
2022-11-18T22:45:08.533Z,6.77
2022-11-18T22:50:10.735Z,6.77
2022-11-18T22:55:12.368Z,6.75
2022-11-18T23:00:14.643Z,6.82
2022-11-18T23:05:16.300Z,6.84
2022-11-18T23:10:17.826Z,6.81
2022-11-18T23:15:19.359Z,6.86
2022-11-18T23:20:20.936Z,6.84
2022-11-18T23:25:22.549Z,6.83
2022-11-18T23:30:24.176Z,6.84
2022-11-18T23:35:27.979Z,6.80
2022-11-18T23:40:31.018Z,6.84
2022-11-18T23:45:32.551Z,6.82
2022-11-18T23:50:39.009Z,6.69
2022-11-18T23:55:41.016Z,6.47
